sensor_id;sensor_type;location;lat;lon;timestamp;pressure;altitude;pressure_sealevel;temperature;humidity
48041;BME280;33815;48.386;11.738;2023-05-03T00:01:44;97240.50;;;4.06;100.00
48041;BME280;33815;48.386;11.738;2023-05-03T00:04:09;97233.50;;;3.93;100.00
48041;BME280;33815;48.386;11.738;2023-05-03T00:06:35;97234.50;;;4.05;100.00
48041;BME280;33815;48.386;11.738;2023-05-03T00:09:00;97242.91;;;4.09;100.00
48041;BME280;33815;48.386;11.738;2023-05-03T00:11:26;97237.03;;;4.07;100.00
48041;BME280;33815;48.386;11.738;2023-05-03T00:13:51;97225.78;;;3.93;100.00
48041;BME280;33815;48.386;11.738;2023-05-03T00:16:18;97234.16;;;3.97;100.00
48041;BME280;33815;48.386;11.738;2023-05-03T00:18:43;97221.00;;;3.87;100.00
48041;BME280;33815;48.386;11.738;2023-05-03T00:21:08;97229.94;;;3.96;100.00
48041;BME280;33815;48.386;11.738;2023-05-03T00:23:33;97225.13;;;3.90;100.00
48041;BME280;33815;48.386;11.738;2023-05-03T00:25:59;97212.81;;;3.81;100.00
48041;BME280;33815;48.386;11.738;2023-05-03T00:28:24;97226.25;;;3.86;100.00
48041;BME280;33815;48.386;11.738;2023-05-03T00:30:51;97213.25;;;3.73;100.00
48041;BME280;33815;48.386;11.738;2023-05-03T00:33:16;97222.56;;;3.75;100.00
48041;BME280;33815;48.386;11.738;2023-05-03T00:35:42;97224.31;;;3.75;100.00
48041;BME280;33815;48.386;11.738;2023-05-03T00:38:08;97223.75;;;3.70;100.00
48041;BME280;33815;48.386;11.738;2023-05-03T00:40:33;97204.78;;;3.56;100.00
48041;BME280;33815;48.386;11.738;2023-05-03T00:42:58;97208.84;;;3.60;100.00
48041;BME280;33815;48.386;11.738;2023-05-03T00:45:24;97218.78;;;3.67;100.00
48041;BME280;33815;48.386;11.738;2023-05-03T00:47:49;97216.78;;;3.72;100.00
48041;BME280;33815;48.386;11.738;2023-05-03T00:50:14;97205.13;;;3.65;100.00
48041;BME280;33815;48.386;11.738;2023-05-03T00:52:40;97208.47;;;3.67;100.00
48041;BME280;33815;48.386;11.738;2023-05-03T00:55:06;97212.53;;;3.71;100.00
48041;BME280;33815;48.386;11.738;2023-05-03T00:57:32;97211.72;;;3.70;100.00
48041;BME280;33815;48.386;11.738;2023-05-03T00:59:57;97206.63;;;3.69;100.00
48041;BME280;33815;48.386;11.738;2023-05-03T01:02:23;97214.00;;;3.75;100.00
48041;BME280;33815;48.386;11.738;2023-05-03T01:04:49;97198.97;;;3.67;100.00
48041;BME280;33815;48.386;11.738;2023-05-03T01:10:17;97220.63;;;3.79;100.00
48041;BME280;33815;48.386;11.738;2023-05-03T01:13:10;97219.78;;;3.78;100.00
48041;BME280;33815;48.386;11.738;2023-05-03T01:16:04;97219.88;;;3.77;100.00
48041;BME280;33815;48.386;11.738;2023-05-03T01:18:35;97214.28;;;3.70;100.00
48041;BME280;33815;48.386;11.738;2023-05-03T01:21:02;97216.19;;;3.81;100.00
48041;BME280;33815;48.386;11.738;2023-05-03T01:23:39;97213.88;;;3.91;100.00
48041;BME280;33815;48.386;11.738;2023-05-03T01:26:20;97221.72;;;3.89;100.00
48041;BME280;33815;48.386;11.738;2023-05-03T01:28:46;97208.94;;;3.88;100.00
48041;BME280;33815;48.386;11.738;2023-05-03T01:31:16;97204.50;;;3.90;100.00
48041;BME280;33815;48.386;11.738;2023-05-03T01:33:47;97207.25;;;3.87;100.00
48041;BME280;33815;48.386;11.738;2023-05-03T01:36:22;97214.53;;;3.94;100.00
48041;BME280;33815;48.386;11.738;2023-05-03T01:38:50;97209.00;;;4.01;100.00
48041;BME280;33815;48.386;11.738;2023-05-03T01:41:17;97215.06;;;4.00;100.00
48041;BME280;33815;48.386;11.738;2023-05-03T01:43:44;97214.53;;;4.09;100.00
48041;BME280;33815;48.386;11.738;2023-05-03T01:46:10;97215.34;;;4.09;100.00
48041;BME280;33815;48.386;11.738;2023-05-03T01:48:35;97206.06;;;4.07;100.00
48041;BME280;33815;48.386;11.738;2023-05-03T01:51:01;97213.81;;;4.07;100.00
48041;BME280;33815;48.386;11.738;2023-05-03T01:53:26;97212.44;;;4.01;100.00
48041;BME280;33815;48.386;11.738;2023-05-03T01:55:51;97209.50;;;3.93;100.00
48041;BME280;33815;48.386;11.738;2023-05-03T01:58:16;97222.75;;;4.01;100.00
48041;BME280;33815;48.386;11.738;2023-05-03T02:00:44;97216.22;;;3.96;100.00
48041;BME280;33815;48.386;11.738;2023-05-03T02:03:09;97218.41;;;4.02;100.00
48041;BME280;33815;48.386;11.738;2023-05-03T02:05:35;97215.06;;;4.00;100.00
48041;BME280;33815;48.386;11.738;2023-05-03T02:08:00;97220.22;;;4.00;100.00
48041;BME280;33815;48.386;11.738;2023-05-03T02:10:25;97202.75;;;3.90;100.00
48041;BME280;33815;48.386;11.738;2023-05-03T02:12:51;97222.19;;;3.96;100.00
48041;BME280;33815;48.386;11.738;2023-05-03T02:15:16;97225.59;;;3.97;100.00
48041;BME280;33815;48.386;11.738;2023-05-03T02:17:44;97205.16;;;3.79;100.00
48041;BME280;33815;48.386;11.738;2023-05-03T02:20:11;97219.25;;;3.88;100.00
48041;BME280;33815;48.386;11.738;2023-05-03T02:22:37;97226.59;;;3.94;100.00
48041;BME280;33815;48.386;11.738;2023-05-03T02:25:02;97201.31;;;3.72;100.00
48041;BME280;33815;48.386;11.738;2023-05-03T02:27:28;97225.31;;;3.87;100.00
48041;BME280;33815;48.386;11.738;2023-05-03T02:29:53;97226.06;;;3.89;100.00
48041;BME280;33815;48.386;11.738;2023-05-03T02:32:20;97223.38;;;3.90;100.00
48041;BME280;33815;48.386;11.738;2023-05-03T02:34:47;97215.75;;;3.89;100.00
48041;BME280;33815;48.386;11.738;2023-05-03T02:37:13;97212.91;;;3.79;100.00
48041;BME280;33815;48.386;11.738;2023-05-03T02:39:39;97208.94;;;3.88;100.00
48041;BME280;33815;48.386;11.738;2023-05-03T02:42:04;97215.38;;;3.95;100.00
48041;BME280;33815;48.386;11.738;2023-05-03T02:44:30;97202.94;;;3.73;100.00
48041;BME280;33815;48.386;11.738;2023-05-03T02:46:55;97226.69;;;3.78;100.00
48041;BME280;33815;48.386;11.738;2023-05-03T02:49:20;97226.78;;;3.76;100.00
48041;BME280;33815;48.386;11.738;2023-05-03T02:51:46;97220.16;;;3.72;100.00
48041;BME280;33815;48.386;11.738;2023-05-03T02:54:11;97208.66;;;3.64;100.00
48041;BME280;33815;48.386;11.738;2023-05-03T02:56:36;97225.41;;;3.71;100.00
48041;BME280;33815;48.386;11.738;2023-05-03T02:59:02;97223.66;;;3.71;100.00
48041;BME280;33815;48.386;11.738;2023-05-03T03:01:27;97222.38;;;3.78;100.00
48041;BME280;33815;48.386;11.738;2023-05-03T03:03:53;97221.91;;;3.86;100.00
48041;BME280;33815;48.386;11.738;2023-05-03T03:06:19;97206.25;;;3.89;100.00
48041;BME280;33815;48.386;11.738;2023-05-03T03:08:44;97219.41;;;3.99;100.00
48041;BME280;33815;48.386;11.738;2023-05-03T03:11:09;97217.66;;;4.00;100.00
48041;BME280;33815;48.386;11.738;2023-05-03T03:13:35;97217.84;;;3.97;100.00
48041;BME280;33815;48.386;11.738;2023-05-03T03:16:05;97224.88;;;3.94;100.00
48041;BME280;33815;48.386;11.738;2023-05-03T03:18:30;97218.97;;;3.92;100.00
48041;BME280;33815;48.386;11.738;2023-05-03T03:20:55;97220.53;;;3.95;100.00
48041;BME280;33815;48.386;11.738;2023-05-03T03:23:21;97220.44;;;3.97;100.00
48041;BME280;33815;48.386;11.738;2023-05-03T03:25:46;97220.22;;;4.00;100.00
48041;BME280;33815;48.386;11.738;2023-05-03T03:28:11;97210.09;;;3.97;100.00
48041;BME280;33815;48.386;11.738;2023-05-03T03:30:36;97219.97;;;4.04;100.00
48041;BME280;33815;48.386;11.738;2023-05-03T03:33:02;97224.13;;;4.07;100.00
48041;BME280;33815;48.386;11.738;2023-05-03T03:35:27;97214.81;;;4.04;100.00
48041;BME280;33815;48.386;11.738;2023-05-03T03:37:53;97217.91;;;4.09;100.00
48041;BME280;33815;48.386;11.738;2023-05-03T03:40:19;97226.13;;;4.16;100.00
48041;BME280;33815;48.386;11.738;2023-05-03T03:42:44;97220.88;;;4.18;100.00
48041;BME280;33815;48.386;11.738;2023-05-03T03:45:09;97224.09;;;4.21;100.00
48041;BME280;33815;48.386;11.738;2023-05-03T03:47:35;97225.66;;;4.24;100.00
48041;BME280;33815;48.386;11.738;2023-05-03T03:50:00;97227.41;;;4.23;100.00
48041;BME280;33815;48.386;11.738;2023-05-03T03:52:26;97213.13;;;4.18;100.00
48041;BME280;33815;48.386;11.738;2023-05-03T03:54:51;97224.66;;;4.26;100.00
48041;BME280;33815;48.386;11.738;2023-05-03T03:57:17;97212.00;;;4.22;100.00
48041;BME280;33815;48.386;11.738;2023-05-03T03:59:42;97228.84;;;4.42;100.00
48041;BME280;33815;48.386;11.738;2023-05-03T04:02:07;97216.72;;;4.29;100.00
48041;BME280;33815;48.386;11.738;2023-05-03T04:04:33;97236.66;;;4.40;100.00
48041;BME280;33815;48.386;11.738;2023-05-03T04:06:58;97233.06;;;4.43;100.00
48041;BME280;33815;48.386;11.738;2023-05-03T04:09:23;97233.72;;;4.46;100.00
48041;BME280;33815;48.386;11.738;2023-05-03T04:11:48;97226.53;;;4.52;100.00
48041;BME280;33815;48.386;11.738;2023-05-03T04:14:14;97233.88;;;4.58;100.00
48041;BME280;33815;48.386;11.738;2023-05-03T04:16:39;97242.28;;;4.61;100.00
48041;BME280;33815;48.386;11.738;2023-05-03T04:19:04;97242.69;;;4.68;100.00
48041;BME280;33815;48.386;11.738;2023-05-03T04:21:29;97237.53;;;4.68;100.00
48041;BME280;33815;48.386;11.738;2023-05-03T04:23:55;97241.09;;;4.80;100.00
48041;BME280;33815;48.386;11.738;2023-05-03T04:26:20;97244.28;;;4.84;100.00
48041;BME280;33815;48.386;11.738;2023-05-03T04:28:46;97240.31;;;4.92;100.00
48041;BME280;33815;48.386;11.738;2023-05-03T04:31:12;97241.16;;;5.06;100.00
48041;BME280;33815;48.386;11.738;2023-05-03T04:33:38;97255.44;;;5.11;100.00
48041;BME280;33815;48.386;11.738;2023-05-03T04:36:04;97238.09;;;5.13;100.00
48041;BME280;33815;48.386;11.738;2023-05-03T04:38:30;97242.84;;;5.20;100.00
48041;BME280;33815;48.386;11.738;2023-05-03T04:40:56;97244.75;;;5.30;100.00
48041;BME280;33815;48.386;11.738;2023-05-03T04:43:22;97259.44;;;5.43;100.00
48041;BME280;33815;48.386;11.738;2023-05-03T04:45:47;97255.19;;;5.42;100.00
48041;BME280;33815;48.386;11.738;2023-05-03T04:48:12;97249.59;;;5.35;100.00
48041;BME280;33815;48.386;11.738;2023-05-03T04:50:38;97260.16;;;5.45;100.00
48041;BME280;33815;48.386;11.738;2023-05-03T04:53:03;97264.63;;;5.56;100.00
48041;BME280;33815;48.386;11.738;2023-05-03T04:55:28;97261.72;;;5.60;100.00
48041;BME280;33815;48.386;11.738;2023-05-03T04:57:54;97265.56;;;5.68;100.00
48041;BME280;33815;48.386;11.738;2023-05-03T05:00:20;97264.44;;;5.72;100.00
48041;BME280;33815;48.386;11.738;2023-05-03T05:02:47;97267.13;;;5.83;100.00
48041;BME280;33815;48.386;11.738;2023-05-03T05:05:12;97267.97;;;5.83;100.00
48041;BME280;33815;48.386;11.738;2023-05-03T05:07:37;97264.41;;;5.84;100.00
48041;BME280;33815;48.386;11.738;2023-05-03T05:10:03;97273.22;;;5.95;100.00
48041;BME280;33815;48.386;11.738;2023-05-03T05:12:28;97277.19;;;6.00;100.00
48041;BME280;33815;48.386;11.738;2023-05-03T05:14:54;97272.13;;;5.99;100.00
48041;BME280;33815;48.386;11.738;2023-05-03T05:17:19;97286.59;;;6.14;100.00
48041;BME280;33815;48.386;11.738;2023-05-03T05:19:45;97284.69;;;6.29;100.00
48041;BME280;33815;48.386;11.738;2023-05-03T05:22:11;97274.03;;;6.21;100.00
48041;BME280;33815;48.386;11.738;2023-05-03T05:24:36;97284.69;;;6.29;100.00
48041;BME280;33815;48.386;11.738;2023-05-03T05:27:01;97296.00;;;6.41;100.00
48041;BME280;33815;48.386;11.738;2023-05-03T05:29:26;97294.72;;;6.47;100.00
48041;BME280;33815;48.386;11.738;2023-05-03T05:31:52;97288.41;;;6.51;100.00
48041;BME280;33815;48.386;11.738;2023-05-03T05:34:17;97299.88;;;6.60;100.00
48041;BME280;33815;48.386;11.738;2023-05-03T05:36:43;97305.25;;;6.69;100.00
48041;BME280;33815;48.386;11.738;2023-05-03T05:39:08;97302.19;;;6.76;100.00
48041;BME280;33815;48.386;11.738;2023-05-03T05:41:34;97283.41;;;6.61;100.00
48041;BME280;33815;48.386;11.738;2023-05-03T05:43:59;97297.47;;;6.69;100.00
48041;BME280;33815;48.386;11.738;2023-05-03T05:46:25;97295.38;;;6.75;100.00
48041;BME280;33815;48.386;11.738;2023-05-03T05:48:50;97311.31;;;6.81;100.00
48041;BME280;33815;48.386;11.738;2023-05-03T05:51:16;97304.56;;;6.79;100.00
48041;BME280;33815;48.386;11.738;2023-05-03T05:53:41;97303.41;;;6.83;100.00
48041;BME280;33815;48.386;11.738;2023-05-03T05:56:07;97310.50;;;6.81;100.00
48041;BME280;33815;48.386;11.738;2023-05-03T05:58:33;97308.59;;;6.83;100.00
48041;BME280;33815;48.386;11.738;2023-05-03T06:00:59;97303.81;;;6.90;100.00
48041;BME280;33815;48.386;11.738;2023-05-03T06:03:25;97299.38;;;6.92;100.00
48041;BME280;33815;48.386;11.738;2023-05-03T06:05:50;97304.72;;;7.01;100.00
48041;BME280;33815;48.386;11.738;2023-05-03T06:08:16;97289.19;;;7.01;100.00
48041;BME280;33815;48.386;11.738;2023-05-03T06:10:41;97314.09;;;7.15;100.00
48041;BME280;33815;48.386;11.738;2023-05-03T06:13:06;97295.34;;;7.12;100.00
48041;BME280;33815;48.386;11.738;2023-05-03T06:15:31;97304.81;;;7.24;100.00
48041;BME280;33815;48.386;11.738;2023-05-03T06:17:57;97309.81;;;7.38;100.00
48041;BME280;33815;48.386;11.738;2023-05-03T06:20:22;97306.69;;;7.46;100.00
48041;BME280;33815;48.386;11.738;2023-05-03T06:22:48;97299.66;;;7.71;100.00
48041;BME280;33815;48.386;11.738;2023-05-03T06:25:14;97310.91;;;7.83;100.00
48041;BME280;33815;48.386;11.738;2023-05-03T06:27:39;97304.03;;;7.70;100.00
48041;BME280;33815;48.386;11.738;2023-05-03T06:30:05;97302.03;;;7.85;100.00
48041;BME280;33815;48.386;11.738;2023-05-03T06:32:30;97299.50;;;7.61;100.00
48041;BME280;33815;48.386;11.738;2023-05-03T06:34:56;97304.84;;;7.71;100.00
48041;BME280;33815;48.386;11.738;2023-05-03T06:37:23;97306.38;;;7.62;100.00
48041;BME280;33815;48.386;11.738;2023-05-03T06:39:49;97317.25;;;7.79;100.00
48041;BME280;33815;48.386;11.738;2023-05-03T06:42:14;97311.84;;;7.82;100.00
48041;BME280;33815;48.386;11.738;2023-05-03T06:44:41;97298.72;;;7.72;100.00
48041;BME280;33815;48.386;11.738;2023-05-03T06:47:06;97312.47;;;7.97;100.00
48041;BME280;33815;48.386;11.738;2023-05-03T06:49:31;97315.63;;;8.00;100.00
48041;BME280;33815;48.386;11.738;2023-05-03T06:51:57;97298.66;;;8.07;100.00
48041;BME280;33815;48.386;11.738;2023-05-03T06:54:22;97316.84;;;8.30;100.00
48041;BME280;33815;48.386;11.738;2023-05-03T06:56:47;97314.16;;;8.32;100.00
48041;BME280;33815;48.386;11.738;2023-05-03T06:59:12;97307.97;;;8.44;100.00
48041;BME280;33815;48.386;11.738;2023-05-03T07:01:38;97312.59;;;8.74;100.00
48041;BME280;33815;48.386;11.738;2023-05-03T07:04:03;97309.09;;;8.53;100.00
48041;BME280;33815;48.386;11.738;2023-05-03T07:06:28;97304.59;;;8.55;100.00
48041;BME280;33815;48.386;11.738;2023-05-03T07:08:54;97309.38;;;8.82;100.00
48041;BME280;33815;48.386;11.738;2023-05-03T07:11:20;97304.06;;;8.95;100.00
48041;BME280;33815;48.386;11.738;2023-05-03T07:13:52;97301.78;;;9.13;100.00
48041;BME280;33815;48.386;11.738;2023-05-03T07:16:18;97300.47;;;9.07;100.00
48041;BME280;33815;48.386;11.738;2023-05-03T07:18:43;97289.22;;;9.39;100.00
48041;BME280;33815;48.386;11.738;2023-05-03T07:21:09;97280.69;;;9.49;100.00
48041;BME280;33815;48.386;11.738;2023-05-03T07:23:34;97296.38;;;9.58;100.00
48041;BME280;33815;48.386;11.738;2023-05-03T07:26:00;97296.91;;;9.62;100.00
48041;BME280;33815;48.386;11.738;2023-05-03T07:28:25;97285.50;;;9.53;100.00
48041;BME280;33815;48.386;11.738;2023-05-03T07:30:51;97293.69;;;9.70;100.00
48041;BME280;33815;48.386;11.738;2023-05-03T07:33:16;97286.56;;;9.72;100.00
48041;BME280;33815;48.386;11.738;2023-05-03T07:35:44;97300.88;;;9.77;100.00
48041;BME280;33815;48.386;11.738;2023-05-03T07:38:10;97300.94;;;9.66;100.00
48041;BME280;33815;48.386;11.738;2023-05-03T07:40:35;97300.09;;;9.45;100.00
48041;BME280;33815;48.386;11.738;2023-05-03T07:43:01;97283.25;;;9.28;100.00
48041;BME280;33815;48.386;11.738;2023-05-03T07:45:26;97298.44;;;9.65;100.00
48041;BME280;33815;48.386;11.738;2023-05-03T07:47:52;97294.50;;;9.70;100.00
48041;BME280;33815;48.386;11.738;2023-05-03T07:50:18;97295.47;;;9.90;100.00
48041;BME280;33815;48.386;11.738;2023-05-03T07:52:43;97293.97;;;9.88;100.00
48041;BME280;33815;48.386;11.738;2023-05-03T07:55:08;97284.34;;;10.40;100.00
48041;BME280;33815;48.386;11.738;2023-05-03T07:57:34;97284.25;;;10.52;100.00
48041;BME280;33815;48.386;11.738;2023-05-03T08:00:00;97286.13;;;10.90;100.00
48041;BME280;33815;48.386;11.738;2023-05-03T08:02:25;97282.19;;;11.06;100.00
48041;BME280;33815;48.386;11.738;2023-05-03T08:04:51;97265.28;;;11.10;100.00
48041;BME280;33815;48.386;11.738;2023-05-03T08:07:16;97286.47;;;11.36;100.00
48041;BME280;33815;48.386;11.738;2023-05-03T08:09:41;97282.56;;;11.40;100.00
48041;BME280;33815;48.386;11.738;2023-05-03T08:12:07;97276.53;;;11.49;100.00
48041;BME280;33815;48.386;11.738;2023-05-03T08:14:32;97276.41;;;11.41;100.00
48041;BME280;33815;48.386;11.738;2023-05-03T08:16:58;97280.94;;;11.59;100.00
48041;BME280;33815;48.386;11.738;2023-05-03T08:19:24;97267.75;;;11.41;100.00
48041;BME280;33815;48.386;11.738;2023-05-03T08:21:49;97264.19;;;11.61;100.00
48041;BME280;33815;48.386;11.738;2023-05-03T08:24:18;97285.13;;;11.99;100.00
48041;BME280;33815;48.386;11.738;2023-05-03T08:26:44;97282.25;;;11.92;100.00
48041;BME280;33815;48.386;11.738;2023-05-03T08:29:10;97284.59;;;12.05;100.00
48041;BME280;33815;48.386;11.738;2023-05-03T08:31:36;97284.97;;;11.91;100.00
48041;BME280;33815;48.386;11.738;2023-05-03T08:34:01;97278.47;;;11.47;100.00
48041;BME280;33815;48.386;11.738;2023-05-03T08:36:27;97270.38;;;11.51;100.00
48041;BME280;33815;48.386;11.738;2023-05-03T08:38:53;97285.19;;;11.60;100.00
48041;BME280;33815;48.386;11.738;2023-05-03T08:41:28;97283.41;;;11.60;100.00
48041;BME280;33815;48.386;11.738;2023-05-03T08:43:55;97278.94;;;12.00;100.00
48041;BME280;33815;48.386;11.738;2023-05-03T08:46:20;97288.59;;;11.99;100.00
48041;BME280;33815;48.386;11.738;2023-05-03T08:48:50;97283.09;;;11.73;100.00
48041;BME280;33815;48.386;11.738;2023-05-03T08:51:20;97286.31;;;11.47;100.00
48041;BME280;33815;48.386;11.738;2023-05-03T08:53:46;97281.63;;;11.22;100.00
48041;BME280;33815;48.386;11.738;2023-05-03T08:56:17;97282.19;;;11.16;100.00
48041;BME280;33815;48.386;11.738;2023-05-03T08:58:44;97292.50;;;11.27;100.00
48041;BME280;33815;48.386;11.738;2023-05-03T09:01:09;97286.31;;;11.38;100.00
48041;BME280;33815;48.386;11.738;2023-05-03T09:03:35;97289.31;;;11.43;100.00
48041;BME280;33815;48.386;11.738;2023-05-03T09:06:00;97302.09;;;11.07;100.00
48041;BME280;33815;48.386;11.738;2023-05-03T09:08:29;97294.53;;;11.23;100.00
48041;BME280;33815;48.386;11.738;2023-05-03T09:10:55;97298.78;;;11.14;100.00
48041;BME280;33815;48.386;11.738;2023-05-03T09:13:21;97294.47;;;10.84;100.00
48041;BME280;33815;48.386;11.738;2023-05-03T09:15:54;97286.00;;;11.02;100.00
48041;BME280;33815;48.386;11.738;2023-05-03T09:18:20;97305.91;;;10.93;100.00
48041;BME280;33815;48.386;11.738;2023-05-03T09:20:46;97308.66;;;10.91;100.00
48041;BME280;33815;48.386;11.738;2023-05-03T09:23:33;97293.97;;;11.00;100.00
48041;BME280;33815;48.386;11.738;2023-05-03T09:25:59;97304.56;;;11.08;100.00
48041;BME280;33815;48.386;11.738;2023-05-03T09:28:24;97306.75;;;11.03;100.00
48041;BME280;33815;48.386;11.738;2023-05-03T09:31:03;97310.75;;;11.17;100.00
48041;BME280;33815;48.386;11.738;2023-05-03T09:33:28;97296.91;;;11.36;100.00
48041;BME280;33815;48.386;11.738;2023-05-03T09:35:59;97306.78;;;11.52;100.00
48041;BME280;33815;48.386;11.738;2023-05-03T09:38:29;97300.59;;;11.63;100.00
48041;BME280;33815;48.386;11.738;2023-05-03T09:40:54;97293.25;;;11.86;100.00
48041;BME280;33815;48.386;11.738;2023-05-03T09:43:20;97299.03;;;11.99;100.00
48041;BME280;33815;48.386;11.738;2023-05-03T09:45:45;97293.09;;;11.88;100.00
48041;BME280;33815;48.386;11.738;2023-05-03T09:48:12;97294.31;;;12.13;100.00
48041;BME280;33815;48.386;11.738;2023-05-03T09:50:37;97298.50;;;11.96;100.00
48041;BME280;33815;48.386;11.738;2023-05-03T09:53:04;97299.56;;;11.93;100.00
48041;BME280;33815;48.386;11.738;2023-05-03T09:55:38;97301.22;;;12.04;100.00
48041;BME280;33815;48.386;11.738;2023-05-03T09:58:04;97291.06;;;11.81;100.00
48041;BME280;33815;48.386;11.738;2023-05-03T10:00:35;97299.81;;;12.10;100.00
48041;BME280;33815;48.386;11.738;2023-05-03T10:03:06;97297.09;;;12.02;100.00
48041;BME280;33815;48.386;11.738;2023-05-03T10:05:32;97291.38;;;12.26;100.00
48041;BME280;33815;48.386;11.738;2023-05-03T10:08:00;97288.44;;;12.66;100.00
48041;BME280;33815;48.386;11.738;2023-05-03T10:10:31;97291.09;;;12.84;100.00
48041;BME280;33815;48.386;11.738;2023-05-03T10:12:57;97285.38;;;13.17;100.00
48041;BME280;33815;48.386;11.738;2023-05-03T10:15:24;97271.78;;;13.13;100.00
48041;BME280;33815;48.386;11.738;2023-05-03T10:17:52;97284.94;;;13.03;100.00
48041;BME280;33815;48.386;11.738;2023-05-03T10:20:32;97274.16;;;12.89;100.00
48041;BME280;33815;48.386;11.738;2023-05-03T10:23:20;97281.53;;;13.39;100.00
48041;BME280;33815;48.386;11.738;2023-05-03T10:26:12;97270.28;;;13.65;100.00
48041;BME280;33815;48.386;11.738;2023-05-03T10:28:37;97273.09;;;13.98;100.00
48041;BME280;33815;48.386;11.738;2023-05-03T10:31:03;97257.94;;;14.79;100.00
48041;BME280;33815;48.386;11.738;2023-05-03T10:33:31;97268.16;;;15.15;92.67
48041;BME280;33815;48.386;11.738;2023-05-03T10:36:04;97264.72;;;15.22;86.29
48041;BME280;33815;48.386;11.738;2023-05-03T10:38:30;97271.09;;;15.12;89.40
48041;BME280;33815;48.386;11.738;2023-05-03T10:40:58;97267.50;;;15.04;88.65
48041;BME280;33815;48.386;11.738;2023-05-03T10:45:56;97274.50;;;14.87;90.90
48041;BME280;33815;48.386;11.738;2023-05-03T10:48:22;97259.25;;;14.83;89.69
48041;BME280;33815;48.386;11.738;2023-05-03T10:50:48;97257.19;;;15.28;89.98
48041;BME280;33815;48.386;11.738;2023-05-03T10:56:11;97260.91;;;14.92;85.52
48041;BME280;33815;48.386;11.738;2023-05-03T10:58:37;97263.72;;;15.07;89.94
48041;BME280;33815;48.386;11.738;2023-05-03T11:01:08;97264.06;;;15.29;86.78
48041;BME280;33815;48.386;11.738;2023-05-03T11:03:54;97262.09;;;15.55;81.49
48041;BME280;33815;48.386;11.738;2023-05-03T11:06:36;97252.28;;;15.82;82.81
48041;BME280;33815;48.386;11.738;2023-05-03T11:09:04;97254.56;;;15.52;78.31
48041;BME280;33815;48.386;11.738;2023-05-03T11:11:31;97254.38;;;15.70;85.30
48041;BME280;33815;48.386;11.738;2023-05-03T11:13:57;97252.25;;;15.33;81.77
48041;BME280;33815;48.386;11.738;2023-05-03T11:16:22;97249.00;;;15.47;83.94
48041;BME280;33815;48.386;11.738;2023-05-03T11:18:49;97246.16;;;15.98;86.34
48041;BME280;33815;48.386;11.738;2023-05-03T11:21:15;97241.91;;;16.37;84.95
48041;BME280;33815;48.386;11.738;2023-05-03T11:23:41;97223.56;;;16.29;85.50
48041;BME280;33815;48.386;11.738;2023-05-03T11:26:10;97227.22;;;16.82;78.42
48041;BME280;33815;48.386;11.738;2023-05-03T11:28:39;97228.19;;;17.74;82.55
48041;BME280;33815;48.386;11.738;2023-05-03T11:31:07;97223.81;;;18.04;76.17
48041;BME280;33815;48.386;11.738;2023-05-03T11:33:33;97232.06;;;18.16;71.98
48041;BME280;33815;48.386;11.738;2023-05-03T11:36:03;97224.81;;;17.27;76.97
48041;BME280;33815;48.386;11.738;2023-05-03T11:38:30;97231.72;;;17.05;78.28
48041;BME280;33815;48.386;11.738;2023-05-03T11:40:57;97233.13;;;17.16;74.62
48041;BME280;33815;48.386;11.738;2023-05-03T11:43:22;97220.13;;;16.59;73.13
48041;BME280;33815;48.386;11.738;2023-05-03T11:45:49;97221.25;;;16.97;76.30
48041;BME280;33815;48.386;11.738;2023-05-03T11:48:16;97215.22;;;17.11;72.47
48041;BME280;33815;48.386;11.738;2023-05-03T11:50:52;97216.16;;;17.94;72.08
48041;BME280;33815;48.386;11.738;2023-05-03T11:53:20;97209.16;;;19.05;74.33
48041;BME280;33815;48.386;11.738;2023-05-03T11:55:47;97205.06;;;19.24;65.15
48041;BME280;33815;48.386;11.738;2023-05-03T11:58:14;97200.31;;;18.39;60.91
48041;BME280;33815;48.386;11.738;2023-05-03T12:00:44;97217.47;;;18.50;63.42
48041;BME280;33815;48.386;11.738;2023-05-03T12:03:18;97216.69;;;18.05;67.02
48041;BME280;33815;48.386;11.738;2023-05-03T12:05:45;97204.56;;;18.40;69.02
48041;BME280;33815;48.386;11.738;2023-05-03T12:08:10;97208.63;;;18.58;67.96
48041;BME280;33815;48.386;11.738;2023-05-03T12:10:36;97190.63;;;18.61;64.93
48041;BME280;33815;48.386;11.738;2023-05-03T12:13:01;97181.56;;;18.34;61.91
48041;BME280;33815;48.386;11.738;2023-05-03T12:15:29;97207.59;;;18.22;69.27
48041;BME280;33815;48.386;11.738;2023-05-03T12:17:56;97202.16;;;18.09;68.11
48041;BME280;33815;48.386;11.738;2023-05-03T12:20:22;97206.28;;;17.73;68.75
48041;BME280;33815;48.386;11.738;2023-05-03T12:22:50;97211.34;;;17.22;71.21
48041;BME280;33815;48.386;11.738;2023-05-03T12:25:15;97192.22;;;17.05;70.65
48041;BME280;33815;48.386;11.738;2023-05-03T12:27:40;97196.06;;;16.94;74.29
48041;BME280;33815;48.386;11.738;2023-05-03T12:30:06;97208.47;;;17.32;77.25
48041;BME280;33815;48.386;11.738;2023-05-03T12:32:34;97189.72;;;17.64;61.47
48041;BME280;33815;48.386;11.738;2023-05-03T12:34:59;97192.41;;;17.94;64.18
48041;BME280;33815;48.386;11.738;2023-05-03T12:37:25;97195.91;;;18.61;68.45
48041;BME280;33815;48.386;11.738;2023-05-03T12:39:50;97172.25;;;19.40;62.21
48041;BME280;33815;48.386;11.738;2023-05-03T12:42:16;97154.09;;;19.58;59.65
48041;BME280;33815;48.386;11.738;2023-05-03T12:44:41;97156.34;;;19.90;62.12
48041;BME280;33815;48.386;11.738;2023-05-03T12:47:06;97157.47;;;20.09;54.64
48041;BME280;33815;48.386;11.738;2023-05-03T12:49:32;97170.44;;;20.45;60.08
48041;BME280;33815;48.386;11.738;2023-05-03T12:51:58;97151.56;;;20.68;51.49
48041;BME280;33815;48.386;11.738;2023-05-03T12:54:25;97152.63;;;20.87;52.62